Time;durP1;ratioP1;P1;durP2;ratioP2;P2;SDS_P1;SDS_P2;PMS_P1;PMS_P2;Temp;Humidity;BMP_temperature;BMP_pressure;BME280_temperature;BME280_humidity;BME280_pressure;Samples;Min_cycle;Max_cycle;Signal;HPM_P1;HPM_P2
2022/05/16 00:02:28;;;;;;;7.30;3.10;;;;;;;17.35;100.00;101224.75;5282551;28;20020;-70
2022/05/16 00:04:58;;;;;;;7.72;2.97;;;;;;;17.26;100.00;101215.13;5281475;28;20034;-70
2022/05/16 00:07:29;;;;;;;6.05;2.35;;;;;;;17.22;100.00;101213.84;5285029;28;20027;-70
2022/05/16 00:10:00;;;;;;;5.07;2.67;;;;;;;17.19;100.00;101216.97;5290731;28;20020;-70
2022/05/16 00:12:31;;;;;;;8.10;2.83;;;;;;;17.19;100.00;101216.97;5290261;28;20034;-70
2022/05/16 00:15:03;;;;;;;7.45;3.17;;;;;;;17.15;100.00;101216.53;5275844;27;20477;-69
2022/05/16 00:17:33;;;;;;;6.47;2.65;;;;;;;17.07;100.00;101224.84;5290144;28;20454;-70
2022/05/16 00:20:05;;;;;;;8.45;3.08;;;;;;;17.00;100.00;101210.41;5273458;28;20103;-70
2022/05/16 00:22:37;;;;;;;6.53;3.13;;;;;;;16.93;100.00;101215.78;5279232;28;20027;-69
2022/05/16 00:25:09;;;;;;;8.18;2.92;;;;;;;16.80;100.00;101216.53;5276151;28;20023;-70
2022/05/16 00:27:40;;;;;;;6.30;2.85;;;;;;;16.68;100.00;101217.25;5289754;28;20529;-70
2022/05/16 00:30:13;;;;;;;5.28;2.75;;;;;;;16.59;100.00;101203.00;5284310;28;20019;-70
2022/05/16 00:32:45;;;;;;;5.13;2.80;;;;;;;16.49;100.00;101216.06;5268830;28;20027;-70
2022/05/16 00:35:19;;;;;;;9.57;3.40;;;;;;;16.33;100.00;101219.88;5275597;28;20504;-69
2022/05/16 00:37:50;;;;;;;7.28;3.13;;;;;;;16.19;100.00;101210.81;5273458;28;20028;-69
2022/05/16 00:40:21;;;;;;;5.05;2.65;;;;;;;16.08;100.00;101211.34;5268734;28;20430;-69
2022/05/16 00:43:01;;;;;;;7.80;2.75;;;;;;;16.02;100.00;101214.81;5285873;28;20043;-69
2022/05/16 00:45:31;;;;;;;6.10;2.75;;;;;;;15.95;100.00;101203.91;5276760;28;20100;-69
2022/05/16 00:48:02;;;;;;;10.38;3.45;;;;;;;15.92;100.00;101206.19;5274735;28;20452;-70
2022/05/16 00:50:39;;;;;;;8.70;3.60;;;;;;;15.89;100.00;101209.25;5275235;27;20036;-69
2022/05/16 00:53:10;;;;;;;7.85;2.72;;;;;;;15.88;100.00;101208.41;5277191;28;20076;-70
2022/05/16 00:55:42;;;;;;;6.65;2.85;;;;;;;15.90;100.00;101202.81;5275646;28;20070;-70
2022/05/16 00:58:16;;;;;;;6.65;3.03;;;;;;;15.85;100.00;101205.25;5289190;28;20034;-69
2022/05/16 01:00:48;;;;;;;9.77;3.00;;;;;;;15.77;100.00;101190.84;5274587;28;20073;-69
2022/05/16 01:06:30;;;;;;;4.30;2.85;;;;;;;15.81;100.00;101196.69;5274161;28;20410;-70
2022/05/16 01:09:01;;;;;;;7.32;3.03;;;;;;;15.81;100.00;101199.38;5274869;28;20072;-70
2022/05/16 01:11:33;;;;;;;11.35;4.28;;;;;;;15.80;100.00;101200.41;5289424;27;20031;-70
2022/05/16 01:14:04;;;;;;;5.90;2.75;;;;;;;15.76;100.00;101189.16;5287833;28;20028;-69
2022/05/16 01:16:34;;;;;;;10.13;3.40;;;;;;;15.85;100.00;101200.69;5267797;28;20485;-69
2022/05/16 01:19:05;;;;;;;6.63;2.40;;;;;;;15.84;100.00;101203.59;5276021;28;20476;-70
2022/05/16 01:21:39;;;;;;;9.88;3.63;;;;;;;15.84;100.00;101198.19;5288127;28;20024;-70
2022/05/16 01:24:15;;;;;;;8.10;3.00;;;;;;;15.85;100.00;101189.03;5278875;28;20024;-70
2022/05/16 01:26:45;;;;;;;6.85;2.92;;;;;;;15.88;100.00;101200.31;5285601;28;20028;-70
2022/05/16 01:29:16;;;;;;;8.80;2.85;;;;;;;15.92;100.00;101200.78;5289018;28;20060;-70
2022/05/16 01:31:46;;;;;;;5.13;2.90;;;;;;;15.97;100.00;101190.19;5288471;28;20024;-70
2022/05/16 01:34:17;;;;;;;5.72;3.28;;;;;;;15.98;100.00;101183.75;5275557;28;20097;-69
2022/05/16 01:36:47;;;;;;;7.75;2.80;;;;;;;15.99;100.00;101180.00;5286326;28;20269;-69
2022/05/16 01:39:19;;;;;;;7.38;2.67;;;;;;;16.03;100.00;101181.31;5273473;28;20118;-69
2022/05/16 01:41:50;;;;;;;10.30;2.80;;;;;;;16.04;100.00;101180.25;5276290;28;20069;-69
2022/05/16 01:44:21;;;;;;;7.13;2.60;;;;;;;16.05;100.00;101177.34;5288009;28;20020;-69
2022/05/16 01:46:52;;;;;;;6.85;2.50;;;;;;;16.05;100.00;101171.09;5278734;28;20019;-70
2022/05/16 01:49:30;;;;;;;6.53;2.85;;;;;;;16.06;100.00;101172.78;5281109;28;20024;-71
2022/05/16 01:52:07;;;;;;;7.15;2.85;;;;;;;16.03;100.00;101179.44;5267182;28;20032;-70
2022/05/16 01:54:38;;;;;;;4.40;2.83;;;;;;;16.02;100.00;101177.75;5273900;28;20034;-70
2022/05/16 01:57:08;;;;;;;8.45;3.33;;;;;;;16.02;100.00;101168.81;5273482;28;20499;-69
2022/05/16 01:59:39;;;;;;;13.05;3.92;;;;;;;16.01;100.00;101178.81;5267290;28;20031;-70
2022/05/16 02:02:09;;;;;;;5.90;2.78;;;;;;;15.99;100.00;101172.72;5279429;28;20019;-70
2022/05/16 02:04:40;;;;;;;5.85;3.03;;;;;;;15.92;100.00;101174.53;5266909;28;20032;-70
2022/05/16 02:07:11;;;;;;;4.60;2.47;;;;;;;15.91;100.00;101166.59;5284313;28;20483;-70
2022/05/16 02:09:46;;;;;;;5.68;3.10;;;;;;;15.92;100.00;101171.00;5276169;28;20028;-70
2022/05/16 02:12:28;;;;;;;5.82;2.75;;;;;;;15.89;100.00;101165.97;5280639;28;20472;-70
2022/05/16 02:14:59;;;;;;;5.93;3.00;;;;;;;15.82;100.00;101176.72;5272696;28;20019;-70
2022/05/16 02:17:30;;;;;;;6.57;3.03;;;;;;;15.74;100.00;101193.06;5266712;28;20076;-70
2022/05/16 02:20:01;;;;;;;5.93;2.97;;;;;;;15.65;100.00;101195.06;5282791;28;20230;-70
2022/05/16 02:25:21;;;;;;;12.07;2.75;;;;;;;15.65;100.00;101188.81;5280175;28;20055;-71
2022/05/16 02:27:51;;;;;;;5.53;3.08;;;;;;;15.68;100.00;101186.56;5279952;28;20027;-70
2022/05/16 02:30:22;;;;;;;3.85;2.55;;;;;;;15.69;100.00;101195.53;5275104;28;20410;-70
2022/05/16 02:32:53;;;;;;;7.60;3.40;;;;;;;15.66;100.00;101195.88;5273917;28;20031;-70
2022/05/16 02:35:24;;;;;;;5.32;2.92;;;;;;;15.63;100.00;101177.31;5287373;28;20062;-70
2022/05/16 02:37:58;;;;;;;6.25;3.20;;;;;;;15.59;100.00;101174.16;5270865;28;20062;-70
2022/05/16 02:40:31;;;;;;;8.68;3.25;;;;;;;15.54;100.00;101171.19;5276602;28;20028;-70
2022/05/16 02:43:03;;;;;;;6.10;3.20;;;;;;;15.49;100.00;101165.50;5272312;28;20163;-70
2022/05/16 02:45:34;;;;;;;10.10;4.85;;;;;;;15.44;100.00;101173.38;5274084;28;20032;-70
2022/05/16 02:48:05;;;;;;;4.45;2.97;;;;;;;15.31;100.00;101170.50;5279775;28;20027;-70
2022/05/16 02:50:36;;;;;;;10.90;3.90;;;;;;;15.22;100.00;101161.66;5279667;28;20024;-70
2022/05/16 02:53:07;;;;;;;7.88;3.10;;;;;;;15.23;100.00;101156.06;5265832;28;20443;-70
2022/05/16 02:55:38;;;;;;;8.60;3.95;;;;;;;15.23;100.00;101152.53;5282119;28;20028;-70
2022/05/16 02:58:09;;;;;;;5.13;3.17;;;;;;;15.20;100.00;101148.31;5277535;28;20480;-70
2022/05/16 03:00:40;;;;;;;5.35;3.20;;;;;;;15.19;100.00;101156.63;5266180;28;20032;-70
2022/05/16 03:03:10;;;;;;;6.05;3.20;;;;;;;15.16;100.00;101157.00;5277516;28;20454;-70
2022/05/16 03:05:40;;;;;;;7.25;3.75;;;;;;;15.15;100.00;101156.16;5273224;28;20047;-70
2022/05/16 03:08:12;;;;;;;6.43;3.17;;;;;;;15.15;100.00;101152.63;5287270;27;20469;-70
2022/05/16 03:10:42;;;;;;;6.43;3.22;;;;;;;15.14;100.00;101151.78;5287129;28;20063;-70
2022/05/16 03:13:13;;;;;;;8.02;3.50;;;;;;;15.22;100.00;101150.88;5272707;28;20048;-70
2022/05/16 03:15:45;;;;;;;12.38;3.83;;;;;;;15.15;100.00;101148.06;5272474;28;20377;-70
2022/05/16 03:18:15;;;;;;;7.47;3.45;;;;;;;15.03;100.00;101157.69;5279111;28;20078;-72
2022/05/16 03:20:46;;;;;;;8.52;4.07;;;;;;;14.87;100.00;101161.44;5265729;28;20024;-70
2022/05/16 03:23:16;;;;;;;11.15;4.10;;;;;;;14.73;100.00;101167.66;5268514;28;20016;-69
2022/05/16 03:25:46;;;;;;;5.93;4.03;;;;;;;14.62;100.00;101168.97;5270148;28;20038;-70
2022/05/16 03:28:17;;;;;;;7.70;3.53;;;;;;;14.52;100.00;101175.66;5288263;28;20539;-70
2022/05/16 03:30:48;;;;;;;11.43;4.47;;;;;;;14.47;100.00;101174.34;5290766;28;20384;-70
2022/05/16 03:33:19;;;;;;;7.78;4.55;;;;;;;14.44;100.00;101171.13;5291382;28;20019;-70
2022/05/16 03:35:55;;;;;;;7.95;3.80;;;;;;;14.55;100.00;101161.75;5290650;28;20045;-70
2022/05/16 03:41:16;;;;;;;12.05;5.53;;;;;;;14.57;100.00;101163.28;5290627;28;20055;-70
2022/05/16 03:43:47;;;;;;;9.15;4.35;;;;;;;14.54;100.00;101155.53;5279446;28;20065;-70
2022/05/16 03:46:18;;;;;;;10.75;4.30;;;;;;;14.55;100.00;101150.97;5289141;28;20020;-70
2022/05/16 03:48:48;;;;;;;9.60;4.15;;;;;;;14.55;100.00;101159.91;5290995;28;20102;-70
2022/05/16 03:51:19;;;;;;;13.68;4.53;;;;;;;14.57;100.00;101157.88;5277085;28;20434;-69
2022/05/16 03:53:50;;;;;;;7.90;4.50;;;;;;;14.58;100.00;101159.53;5276829;28;20035;-69
2022/05/16 03:56:27;;;;;;;12.10;4.20;;;;;;;14.59;100.00;101157.69;5282021;28;20401;-70
2022/05/16 03:58:59;;;;;;;7.90;4.13;;;;;;;14.63;100.00;101154.44;5269619;28;20078;-70
2022/05/16 04:01:29;;;;;;;9.68;4.20;;;;;;;14.66;100.00;101164.88;5269379;28;20024;-70
2022/05/16 04:04:00;;;;;;;10.48;4.38;;;;;;;14.72;100.00;101161.41;5273340;28;20027;-69
2022/05/16 04:06:34;;;;;;;7.30;4.35;;;;;;;14.74;100.00;101170.16;5284459;28;20066;-69
2022/05/16 04:09:04;;;;;;;7.85;4.43;;;;;;;14.76;100.00;101165.44;5290305;28;20027;-69
2022/05/16 04:11:35;;;;;;;6.18;4.00;;;;;;;14.86;100.00;101172.38;5276909;28;20035;-69
2022/05/16 04:14:05;;;;;;;17.90;4.68;;;;;;;14.97;100.00;101177.34;5289947;28;20502;-69
2022/05/16 04:16:37;;;;;;;10.10;4.45;;;;;;;15.04;100.00;101170.16;5289592;28;20024;-70
2022/05/16 04:19:08;;;;;;;8.32;4.22;;;;;;;15.13;100.00;101174.44;5290406;28;20024;-70
2022/05/16 04:21:38;;;;;;;7.78;4.10;;;;;;;15.21;100.00;101171.66;5273715;27;20028;-70
2022/05/16 04:24:09;;;;;;;11.50;4.63;;;;;;;15.29;100.00;101182.34;5268904;28;20050;-69
2022/05/16 04:26:39;;;;;;;7.50;4.32;;;;;;;15.43;100.00;101185.22;5286499;28;20140;-69
2022/05/16 04:29:10;;;;;;;12.57;4.28;;;;;;;15.55;100.00;101183.69;5289574;28;20023;-69
2022/05/16 04:31:40;;;;;;;10.18;4.47;;;;;;;15.60;100.00;101185.81;5284704;28;20036;-70
2022/05/16 04:34:11;;;;;;;22.13;5.53;;;;;;;15.59;100.00;101184.13;5281224;28;20031;-70
2022/05/16 04:36:41;;;;;;;9.73;4.63;;;;;;;15.58;100.00;101186.00;5276149;28;20015;-69
2022/05/16 04:39:12;;;;;;;12.27;4.90;;;;;;;15.60;100.00;101175.81;5276014;28;20031;-70
2022/05/16 04:44:36;;;;;;;16.17;4.55;;;;;;;15.60;100.00;101191.22;5272518;28;20103;-70
2022/05/16 04:47:08;;;;;;;9.18;4.78;;;;;;;15.59;100.00;101208.47;5277652;28;20016;-71
2022/05/16 04:49:38;;;;;;;8.73;4.68;;;;;;;15.57;100.00;101205.13;5268409;28;20046;-70
2022/05/16 04:52:11;;;;;;;10.32;4.35;;;;;;;15.60;100.00;101215.56;5267988;28;20024;-70
2022/05/16 04:54:41;;;;;;;12.40;4.47;;;;;;;15.69;100.00;101218.00;5275938;28;20473;-70
2022/05/16 04:57:12;;;;;;;11.52;4.57;;;;;;;15.80;100.00;101217.47;5275737;28;20020;-70
2022/05/16 04:59:42;;;;;;;7.55;4.07;;;;;;;15.89;100.00;101223.63;5289463;28;20028;-69
2022/05/16 05:02:14;;;;;;;8.50;3.70;;;;;;;15.99;100.00;101228.72;5275556;28;20032;-70
2022/05/16 05:04:45;;;;;;;11.15;4.38;;;;;;;16.08;100.00;101230.28;5288943;28;20030;-70
2022/05/16 05:07:16;;;;;;;10.07;3.80;;;;;;;16.21;100.00;101241.22;5279703;28;20427;-70
2022/05/16 05:15:25;;;;;;;11.13;4.22;;;;;;;16.72;100.00;101251.09;5284093;28;20054;-69
2022/05/16 05:17:55;;;;;;;14.90;4.55;;;;;;;16.81;100.00;101245.28;5280083;28;20063;-70
2022/05/16 05:20:26;;;;;;;9.65;3.65;;;;;;;16.94;100.00;101247.25;5275301;28;20464;-70
2022/05/16 05:22:57;;;;;;;13.68;4.20;;;;;;;17.09;100.00;101253.41;5289288;28;20024;-71
2022/05/16 05:25:27;;;;;;;11.07;3.38;;;;;;;17.22;100.00;101252.66;5281362;28;20477;-71
2022/05/16 05:28:02;;;;;;;13.45;4.65;;;;;;;17.35;100.00;101255.41;5268652;28;20127;-71
2022/05/16 05:30:33;;;;;;;10.77;4.15;;;;;;;17.45;100.00;101257.78;5279582;28;20020;-70
2022/05/16 05:33:03;;;;;;;15.88;4.43;;;;;;;17.57;100.00;101266.16;5267649;28;20031;-70
2022/05/16 05:35:34;;;;;;;12.93;4.53;;;;;;;17.70;100.00;101270.81;5267478;28;20048;-70
2022/05/16 05:38:04;;;;;;;13.65;3.83;;;;;;;17.85;100.00;101269.66;5267542;28;20107;-69
2022/05/16 05:40:37;;;;;;;7.50;3.58;;;;;;;18.04;100.00;101275.34;5279653;28;20019;-69
2022/05/16 05:43:07;;;;;;;14.52;4.15;;;;;;;18.18;100.00;101277.06;5288561;28;20027;-69
2022/05/16 05:45:38;;;;;;;7.03;4.25;;;;;;;18.32;100.00;101278.75;5269225;28;20065;-69
2022/05/16 05:48:09;;;;;;;17.40;4.20;;;;;;;18.44;100.00;101278.13;5277597;27;20050;-69
2022/05/16 05:50:39;;;;;;;17.77;4.70;;;;;;;18.52;100.00;101281.47;5270752;28;20047;-69
2022/05/16 05:53:10;;;;;;;13.48;4.63;;;;;;;18.58;100.00;101282.53;5273407;28;20024;-69
2022/05/16 05:55:40;;;;;;;11.90;4.22;;;;;;;18.62;100.00;101276.47;5285522;28;20072;-69
2022/05/16 05:58:11;;;;;;;10.68;4.63;;;;;;;18.69;100.00;101289.25;5286243;28;20027;-69
2022/05/16 06:00:43;;;;;;;9.70;4.30;;;;;;;18.77;100.00;101286.31;5272446;28;20500;-69
2022/05/16 06:03:14;;;;;;;10.75;4.45;;;;;;;18.82;100.00;101287.34;5285745;28;20027;-69
2022/05/16 06:05:45;;;;;;;10.93;4.43;;;;;;;18.92;100.00;101288.81;5266750;28;20073;-69
2022/05/16 06:08:16;;;;;;;9.73;4.50;;;;;;;19.02;100.00;101290.06;5273206;28;20008;-69
2022/05/16 06:10:47;;;;;;;11.05;4.43;;;;;;;19.20;100.00;101294.84;5278645;28;20063;-69
2022/05/16 06:13:19;;;;;;;9.10;4.15;;;;;;;19.39;100.00;101288.53;5277944;28;20025;-69
2022/05/16 06:15:49;;;;;;;12.55;3.80;;;;;;;19.62;100.00;101295.38;5279921;28;20118;-69
2022/05/16 06:18:19;;;;;;;8.70;3.65;;;;;;;20.05;100.00;101298.34;5270167;28;20525;-70
2022/05/16 06:20:50;;;;;;;10.13;4.00;;;;;;;20.72;100.00;101289.72;5273984;28;20027;-70
2022/05/16 06:23:20;;;;;;;11.85;3.25;;;;;;;20.80;100.00;101295.75;5271437;28;20099;-70
2022/05/16 06:25:51;;;;;;;12.15;3.88;;;;;;;20.80;100.00;101293.03;5284771;28;20103;-69
2022/05/16 06:28:24;;;;;;;5.75;3.75;;;;;;;21.37;100.00;101293.75;5284975;28;20032;-69
2022/05/16 06:30:56;;;;;;;8.80;3.13;;;;;;;22.36;100.00;101310.78;5285611;28;20377;-70
2022/05/16 06:33:26;;;;;;;7.55;3.33;;;;;;;22.96;100.00;101310.66;5271644;28;20038;-70
2022/05/16 06:35:59;;;;;;;8.40;3.90;;;;;;;23.66;100.00;101303.50;5284534;28;20023;-70
2022/05/16 06:38:32;;;;;;;8.57;3.60;;;;;;;24.25;100.00;101307.69;5276751;28;20020;-70
2022/05/16 06:41:02;;;;;;;13.82;3.00;;;;;;;25.00;100.00;101306.53;5277907;28;20028;-69
2022/05/16 06:43:34;;;;;;;10.38;3.38;;;;;;;25.26;100.00;101320.66;5264356;28;20016;-69
2022/05/16 06:46:05;;;;;;;9.85;2.67;;;;;;;25.11;100.00;101328.66;5276993;28;20028;-71
2022/05/16 06:48:35;;;;;;;12.40;2.75;;;;;;;24.82;100.00;101330.63;5274994;28;20507;-70
2022/05/16 06:51:06;;;;;;;7.38;2.72;;;;;;;25.22;100.00;101330.47;5279329;28;20419;-70
2022/05/16 06:53:36;;;;;;;4.47;2.17;;;;;;;25.35;100.00;101326.53;5275258;28;20595;-70
2022/05/16 06:56:07;;;;;;;4.72;2.58;;;;;;;25.52;100.00;101321.81;5284165;28;20052;-70
2022/05/16 06:58:38;;;;;;;12.68;3.08;;;;;;;25.61;100.00;101323.06;5270166;28;20473;-70
2022/05/16 07:01:08;;;;;;;8.43;2.35;;;;;;;26.11;100.00;101324.78;5271019;28;20027;-70
2022/05/16 07:03:42;;;;;;;5.80;2.10;;;;;;;25.94;99.91;101333.09;5268971;28;20024;-70
2022/05/16 07:06:14;;;;;;;4.82;2.70;;;;;;;26.34;100.00;101334.63;5271386;28;20110;-70
2022/05/16 07:08:45;;;;;;;7.72;2.75;;;;;;;26.57;98.25;101331.59;5284874;28;20391;-70
2022/05/16 07:11:15;;;;;;;12.75;2.17;;;;;;;27.29;93.97;101337.69;5284810;28;20019;-71
2022/05/16 07:13:46;;;;;;;6.32;2.60;;;;;;;27.69;92.22;101336.25;5283599;28;20023;-71
2022/05/16 07:16:16;;;;;;;8.15;2.63;;;;;;;27.67;89.63;101328.25;5263824;28;20530;-71
2022/05/16 07:18:47;;;;;;;8.40;2.08;;;;;;;27.30;89.66;101331.91;5283499;28;20063;-71
2022/05/16 07:21:17;;;;;;;7.30;2.42;;;;;;;26.95;91.44;101337.97;5270494;28;20031;-71
2022/05/16 07:23:48;;;;;;;11.40;2.53;;;;;;;26.73;94.05;101337.25;5271132;28;20151;-71
2022/05/16 07:29:07;;;;;;;7.47;2.00;;;;;;;27.50;90.30;101333.94;5272826;28;20040;-71
2022/05/16 07:31:38;;;;;;;7.95;2.65;;;;;;;27.53;90.47;101330.66;5263725;28;20028;-70
2022/05/16 07:34:08;;;;;;;12.73;2.65;;;;;;;27.59;89.78;101329.59;5263290;28;20024;-70
2022/05/16 07:36:38;;;;;;;18.80;3.33;;;;;;;28.41;86.41;101334.59;5262525;28;20107;-71
2022/05/16 07:39:09;;;;;;;5.93;2.40;;;;;;;27.60;87.97;101331.22;5263372;28;20024;-70
2022/05/16 07:41:40;;;;;;;11.25;2.08;;;;;;;26.89;93.07;101336.25;5270887;28;20024;-71
2022/05/16 07:44:10;;;;;;;5.82;2.47;;;;;;;26.94;93.18;101338.22;5281497;28;20023;-70
2022/05/16 07:46:41;;;;;;;9.95;2.67;;;;;;;27.70;87.52;101343.41;5262869;28;20027;-71
2022/05/16 07:49:13;;;;;;;5.82;2.47;;;;;;;27.21;87.83;101343.69;5276526;28;20027;-71
2022/05/16 07:51:43;;;;;;;6.75;2.60;;;;;;;26.48;94.70;101348.84;5273111;28;20020;-71
2022/05/16 07:54:14;;;;;;;9.95;2.50;;;;;;;26.89;94.29;101347.28;5283742;28;20422;-70
2022/05/16 07:56:44;;;;;;;6.82;2.22;;;;;;;27.40;93.49;101346.84;5283966;28;20032;-72
2022/05/16 07:59:16;;;;;;;4.40;2.38;;;;;;;27.85;90.22;101343.50;5278879;28;20024;-70
2022/05/16 08:01:47;;;;;;;6.50;2.28;;;;;;;28.50;85.49;101344.81;5275008;28;20031;-70
2022/05/16 08:04:17;;;;;;;7.32;2.78;;;;;;;28.21;87.34;101347.19;5283575;28;20068;-71
2022/05/16 08:06:48;;;;;;;6.45;2.20;;;;;;;27.45;89.98;101350.44;5291705;28;20380;-70
2022/05/16 08:12:07;;;;;;;6.35;2.88;;;;;;;26.13;94.95;101365.75;5269538;28;20440;-70
2022/05/16 08:14:43;;;;;;;11.35;2.72;;;;;;;25.37;100.00;101366.38;5272364;28;20059;-71
2022/05/16 08:17:14;;;;;;;7.85;2.85;;;;;;;24.80;100.00;101363.81;5273635;28;20023;-70
2022/05/16 08:19:44;;;;;;;7.00;2.55;;;;;;;24.86;100.00;101365.56;5287760;28;20039;-70
2022/05/16 08:22:17;;;;;;;11.98;3.15;;;;;;;24.86;100.00;101371.06;5273212;28;20019;-71
2022/05/16 08:24:48;;;;;;;10.38;3.00;;;;;;;25.34;100.00;101364.13;5273825;28;20073;-70
2022/05/16 08:27:18;;;;;;;7.93;2.88;;;;;;;25.54;100.00;101366.34;5286900;27;20467;-70
2022/05/16 08:29:48;;;;;;;12.68;3.33;;;;;;;25.81;100.00;101377.47;5273991;28;20024;-70
2022/05/16 08:32:23;;;;;;;18.83;3.63;;;;;;;26.50;100.00;101391.50;5287170;27;20023;-70
2022/05/16 08:35:00;;;;;;;11.67;2.97;;;;;;;25.71;100.00;101378.13;5286732;28;20106;-70
2022/05/16 08:40:23;;;;;;;11.43;3.00;;;;;;;24.54;100.00;101403.66;5287051;28;20016;-69
2022/05/16 08:43:12;;;;;;;5.75;3.33;;;;;;;24.75;100.00;101402.97;5287305;28;20020;-70
2022/05/16 08:46:04;;;;;;;14.93;3.50;;;;;;;25.05;100.00;101407.28;5273273;28;20027;-70
2022/05/16 08:48:38;;;;;;;8.00;3.53;;;;;;;24.56;100.00;101406.16;5276478;28;20020;-70
2022/05/16 08:51:13;;;;;;;9.53;3.47;;;;;;;24.72;100.00;101400.72;5284436;28;20034;-70
2022/05/16 08:53:47;;;;;;;8.73;3.42;;;;;;;25.08;100.00;101409.59;5286808;28;20106;-70
2022/05/16 08:56:23;;;;;;;9.82;3.80;;;;;;;24.64;100.00;101403.00;5265283;28;20069;-70
2022/05/16 08:59:14;;;;;;;8.05;3.88;;;;;;;25.04;100.00;101414.69;5266146;28;20031;-71
2022/05/16 09:02:08;;;;;;;11.73;3.55;;;;;;;26.10;100.00;101413.84;5266204;28;20465;-70
2022/05/16 09:04:48;;;;;;;9.07;3.60;;;;;;;26.29;100.00;101425.34;5275696;28;20031;-70
2022/05/16 09:07:26;;;;;;;9.32;3.30;;;;;;;26.23;100.00;101429.94;5280636;28;20023;-70
2022/05/16 09:10:11;;;;;;;10.75;4.07;;;;;;;25.96;100.00;101427.16;5273416;28;20059;-70
2022/05/16 09:13:07;;;;;;;6.25;2.97;;;;;;;25.60;100.00;101431.25;5265851;28;20035;-71
2022/05/16 09:16:15;;;;;;;10.13;3.45;;;;;;;25.27;100.00;101443.94;5272612;28;20055;-70
2022/05/16 09:19:17;;;;;;;9.13;4.55;;;;;;;24.32;100.00;101444.63;5273244;28;20035;-70
2022/05/16 09:22:04;;;;;;;11.68;3.80;;;;;;;25.10;100.00;101434.88;5279900;28;20020;-71
2022/05/16 09:24:38;;;;;;;10.35;3.17;;;;;;;25.22;100.00;101443.88;5285511;28;20031;-70
2022/05/16 09:28:34;;;;;;;14.35;3.70;;;;;;;25.27;100.00;101454.09;5273168;28;20457;-70
2022/05/16 09:30:07;;;;;;;9.35;3.45;;;;;;;25.06;100.00;101452.91;5272758;28;20030;-70
2022/05/16 09:32:43;;;;;;;7.13;3.40;;;;;;;25.06;100.00;101433.69;5286961;28;20060;-70
2022/05/16 09:35:39;;;;;;;7.25;3.58;;;;;;;25.27;100.00;101451.38;5286052;28;20027;-70
2022/05/16 09:38:10;;;;;;;9.45;3.45;;;;;;;26.08;100.00;101449.00;5285448;28;20028;-70
2022/05/16 09:40:54;;;;;;;12.73;4.63;;;;;;;25.85;100.00;101454.72;5286573;28;20084;-70
2022/05/16 09:43:26;;;;;;;13.60;4.07;;;;;;;25.09;100.00;101457.09;5265605;28;20394;-69
2022/05/16 09:46:19;;;;;;;14.20;4.20;;;;;;;24.62;100.00;101469.09;5280708;28;20024;-70
2022/05/16 09:49:10;;;;;;;13.55;5.15;;;;;;;24.71;100.00;101470.38;5274040;28;20511;-70
2022/05/16 09:51:45;;;;;;;12.70;4.38;;;;;;;24.52;100.00;101477.97;5265970;28;20073;-70
2022/05/16 09:54:18;;;;;;;;;;;;;;;24.38;100.00;101483.97;5269809;28;20088;-70
2022/05/16 09:57:25;;;;;;;9.63;4.50;;;;;;;24.41;100.00;101481.59;5274431;28;20273;-70
2022/05/16 10:00:12;;;;;;;14.32;4.93;;;;;;;24.39;100.00;101485.63;5265011;28;20509;-70
2022/05/16 10:02:43;;;;;;;11.00;4.50;;;;;;;24.57;100.00;101492.84;5271835;28;20160;-70
2022/05/16 10:05:31;;;;;;;12.15;4.90;;;;;;;24.57;100.00;101498.34;5284108;28;20027;-70
2022/05/16 10:08:32;;;;;;;8.73;4.75;;;;;;;24.59;100.00;101498.91;5272261;28;20430;-70
2022/05/16 10:11:07;;;;;;;11.18;4.88;;;;;;;24.15;100.00;101510.34;5273541;28;20027;-70
2022/05/16 10:13:38;;;;;;;11.35;5.22;;;;;;;24.09;100.00;101518.66;5285372;28;20031;-71
2022/05/16 10:16:11;;;;;;;10.95;5.78;;;;;;;23.87;100.00;101527.50;5273773;28;20089;-70
2022/05/16 10:18:47;;;;;;;16.25;5.95;;;;;;;23.32;100.00;101537.88;5283119;28;20034;-70
2022/05/16 10:21:26;;;;;;;8.95;5.68;;;;;;;22.95;100.00;101532.53;5271648;28;20031;-69
2022/05/16 10:23:59;;;;;;;14.65;5.35;;;;;;;22.86;100.00;101545.66;5272254;28;20024;-69
2022/05/16 10:26:35;;;;;;;21.00;6.40;;;;;;;22.43;100.00;101560.25;5269082;27;20019;-69
2022/05/16 10:29:12;;;;;;;11.07;6.13;;;;;;;22.38;100.00;101567.47;5274282;28;20392;-70
2022/05/16 10:34:59;;;;;;;11.40;6.32;;;;;;;22.44;100.00;101585.69;5271584;28;20039;-70
2022/05/16 10:37:32;;;;;;;13.13;6.45;;;;;;;22.55;100.00;101578.66;5284642;28;20382;-69
2022/05/16 10:40:40;;;;;;;17.38;6.45;;;;;;;22.37;100.00;101582.22;5263583;28;20035;-69
2022/05/16 10:43:29;;;;;;;8.82;6.03;;;;;;;22.21;100.00;101580.91;5283498;28;20023;-70
2022/05/16 10:46:19;;;;;;;16.00;6.45;;;;;;;22.03;100.00;101589.03;5284265;28;20031;-69
2022/05/16 10:48:55;;;;;;;13.10;6.45;;;;;;;21.91;100.00;101591.66;5271396;28;20067;-70
2022/05/16 10:51:49;;;;;;;10.07;6.18;;;;;;;21.79;100.00;101593.44;5263432;28;20023;-70
2022/05/16 10:54:37;;;;;;;10.25;6.22;;;;;;;21.54;100.00;101601.63;5281434;28;20076;-69
2022/05/16 10:57:43;;;;;;;16.52;7.68;;;;;;;21.40;100.00;101609.91;5284279;28;20019;-69
2022/05/16 11:00:18;;;;;;;12.45;6.88;;;;;;;21.29;100.00;101615.19;5270630;28;20035;-69
2022/05/16 11:03:26;;;;;;;14.55;7.43;;;;;;;21.24;100.00;101610.38;5271413;28;20027;-69
2022/05/16 11:06:34;;;;;;;17.05;7.53;;;;;;;21.13;100.00;101617.34;5278728;28;20139;-69
2022/05/16 11:09:20;;;;;;;14.85;8.05;;;;;;;21.10;100.00;101611.50;5284025;28;20573;-69
2022/05/16 11:12:00;;;;;;;15.77;7.80;;;;;;;21.15;100.00;101617.97;5283442;28;20065;-69
2022/05/16 11:14:40;;;;;;;14.43;7.93;;;;;;;21.21;100.00;101614.38;5284198;28;20015;-69
2022/05/16 11:17:23;;;;;;;13.57;7.32;;;;;;;21.40;100.00;101626.28;5264583;28;20020;-69
2022/05/16 11:20:05;;;;;;;15.00;7.15;;;;;;;21.37;100.00;101617.69;5278717;28;20438;-69
2022/05/16 11:22:40;;;;;;;17.17;8.13;;;;;;;21.76;100.00;101618.47;5274190;28;20099;-69
2022/05/16 11:25:45;;;;;;;17.88;7.60;;;;;;;22.02;100.00;101614.69;5277393;28;20047;-69
2022/05/16 11:28:40;;;;;;;14.80;7.15;;;;;;;22.21;100.00;101620.00;5276722;28;20036;-69
2022/05/16 11:31:17;;;;;;;12.00;7.68;;;;;;;22.40;100.00;101620.88;5278384;28;20384;-69
2022/05/16 11:33:53;;;;;;;14.90;6.53;;;;;;;22.53;100.00;101621.78;5277080;28;20382;-69
2022/05/16 11:36:52;;;;;;;15.93;7.20;;;;;;;22.89;100.00;101616.38;5280262;28;20183;-70
2022/05/16 11:39:40;;;;;;;12.60;6.20;;;;;;;23.13;100.00;101622.78;5271779;28;20035;-69
2022/05/16 11:42:38;;;;;;;9.68;5.93;;;;;;;23.16;100.00;101622.31;5285958;28;20035;-70
2022/05/16 11:45:28;;;;;;;11.52;6.10;;;;;;;23.26;100.00;101625.34;5268161;28;20031;-70
2022/05/16 11:48:19;;;;;;;9.80;5.18;;;;;;;23.23;100.00;101624.97;5287827;28;20019;-70
2022/05/16 11:51:03;;;;;;;11.93;5.35;;;;;;;23.35;100.00;101634.06;5273288;28;20032;-70
2022/05/16 11:53:57;;;;;;;12.77;6.53;;;;;;;23.32;100.00;101636.44;5279161;28;20538;-69
2022/05/16 12:02:39;;;;;;;16.38;5.10;;;;;;;23.98;100.00;101635.44;5289284;28;20024;-70
2022/05/16 12:05:30;;;;;;;13.57;5.68;;;;;;;24.06;100.00;101640.59;5288854;28;20051;-70
2022/05/16 12:08:14;;;;;;;9.60;5.20;;;;;;;24.15;100.00;101649.31;5297650;27;20061;-70
2022/05/16 12:11:10;;;;;;;8.65;4.93;;;;;;;24.08;100.00;101645.81;5283078;28;20027;-70
2022/05/16 12:14:00;;;;;;;11.95;4.32;;;;;;;24.01;100.00;101652.25;5284741;28;20020;-70
2022/05/16 12:16:42;;;;;;;10.88;4.55;;;;;;;24.04;100.00;101653.69;5267806;28;20463;-70
2022/05/16 12:19:16;;;;;;;13.13;4.53;;;;;;;24.17;100.00;101652.63;5267737;28;20036;-70
2022/05/16 12:22:05;;;;;;;9.20;4.47;;;;;;;24.02;100.00;101673.09;5267930;28;20062;-71
2022/05/16 12:24:52;;;;;;;9.63;4.35;;;;;;;23.97;100.00;101656.53;5280036;28;20049;-70
2022/05/16 12:27:38;;;;;;;7.82;3.78;;;;;;;23.74;100.00;101654.56;5279859;28;20073;-70